Terminal Aerodrome Forecast
Issued by NWS Melbourne, FL

Current Version | Previous Version | Text Only | Print | Product List | Glossary On
Versions: 1 2 3 4 5 6 7 8 9 10 11 12 13 14 15 16 17 18 19 20 21 22 23 24 25 26
000
FTUS42 KMLB 160300 AAA
TAFMCO
TAF AMD
KMCO 160309Z 1603/1624 27011KT P6SM SCT020 BKN040
     FM160400 30011G18KT P6SM BKN020 BKN200
     FM161200 01013G22KT P6SM SCT020 BKN250=

USA.gov is the U.S. government's official web portal to all federal, state and local government web resources and services.